Time;durP1;ratioP1;P1;durP2;ratioP2;P2;SDS_P1;SDS_P2;PMS_P1;PMS_P2;Temp;Humidity;BMP_temperature;BMP_pressure;BME280_temperature;BME280_humidity;BME280_pressure;Samples;Min_cycle;Max_cycle;Signal;HPM_P1;HPM_P2
2024/01/02 00:00:25;;;;;;;15.50;4.13;;;5.90;99.90;;;;;;7374051;19;20015;-69
2024/01/02 00:02:52;;;;;;;14.82;4.22;;;5.90;99.90;;;;;;7376133;19;20094;-68
2024/01/02 00:05:19;;;;;;;12.07;4.18;;;5.90;99.90;;;;;;7375099;19;20022;-68
2024/01/02 00:07:45;;;;;;;11.57;4.10;;;6.00;99.90;;;;;;7376146;19;20025;-61
2024/01/02 00:10:11;;;;;;;9.32;3.65;;;6.00;99.90;;;;;;7369953;19;20023;-62
2024/01/02 00:12:58;;;;;;;9.85;3.35;;;6.00;99.90;;;;;;7371347;19;20026;-62
2024/01/02 00:15:25;;;;;;;13.13;3.20;;;6.00;99.90;;;;;;7375905;19;21471;-61
2024/01/02 00:17:52;;;;;;;11.68;3.72;;;6.10;99.90;;;;;;7374232;19;20029;-61
2024/01/02 00:20:18;;;;;;;11.93;3.40;;;6.10;99.90;;;;;;7372026;19;21626;-61
2024/01/02 00:22:44;;;;;;;13.25;3.65;;;6.10;99.90;;;;;;7374016;19;20038;-62
2024/01/02 00:25:10;;;;;;;9.07;3.22;;;6.00;99.90;;;;;;7370340;19;20022;-62
2024/01/02 00:27:58;;;;;;;15.45;3.35;;;6.10;99.90;;;;;;7371300;19;20022;-62
2024/01/02 00:30:24;;;;;;;12.20;3.25;;;6.10;99.90;;;;;;7372961;19;20018;-61
2024/01/02 00:32:51;;;;;;;8.52;2.65;;;6.10;99.90;;;;;;7372477;19;20026;-61
2024/01/02 00:35:17;;;;;;;9.52;2.50;;;6.00;99.90;;;;;;7374486;19;20025;-62
2024/01/02 00:37:43;;;;;;;7.25;2.40;;;6.10;99.90;;;;;;7371904;19;20014;-67
2024/01/02 00:40:10;;;;;;;6.85;2.78;;;6.00;99.90;;;;;;7375134;19;20580;-68
2024/01/02 00:42:37;;;;;;;13.98;3.38;;;6.00;99.90;;;;;;7372502;19;20021;-62
2024/01/02 00:45:05;;;;;;;10.80;2.65;;;6.00;99.90;;;;;;7372209;19;20053;-62
2024/01/02 00:47:33;;;;;;;10.43;3.13;;;6.00;99.90;;;;;;7369476;19;20917;-62
2024/01/02 00:50:00;;;;;;;8.68;2.45;;;6.10;99.90;;;;;;7374532;19;20130;-62
2024/01/02 00:52:46;;;;;;;11.75;2.63;;;6.10;99.90;;;;;;7376324;19;20019;-68
2024/01/02 00:55:12;;;;;;;14.57;3.10;;;6.10;99.90;;;;;;7376738;19;20094;-62
2024/01/02 00:57:39;;;;;;;16.58;4.07;;;6.20;99.90;;;;;;7374265;19;20018;-62
2024/01/02 01:00:06;;;;;;;13.05;3.38;;;6.20;99.90;;;;;;7375413;19;20664;-61
2024/01/02 01:02:32;;;;;;;9.02;2.58;;;6.20;99.90;;;;;;7374618;19;20039;-62
2024/01/02 01:04:59;;;;;;;12.30;3.28;;;6.20;99.90;;;;;;7374452;19;20082;-62
2024/01/02 01:07:25;;;;;;;10.25;3.35;;;6.20;99.90;;;;;;7371296;19;20026;-62
2024/01/02 01:09:52;;;;;;;18.20;3.63;;;6.20;99.90;;;;;;7374412;19;20019;-62
2024/01/02 01:12:18;;;;;;;14.73;3.55;;;6.20;99.90;;;;;;7375912;19;20159;-62
2024/01/02 01:14:44;;;;;;;13.35;3.80;;;6.20;99.90;;;;;;7373287;19;20071;-62
2024/01/02 01:17:12;;;;;;;9.43;3.20;;;6.20;99.90;;;;;;7369055;19;20421;-62
2024/01/02 01:19:39;;;;;;;11.38;3.50;;;6.30;99.90;;;;;;7372601;19;20037;-62
2024/01/02 01:22:05;;;;;;;15.50;3.10;;;6.20;99.90;;;;;;7369536;19;20026;-68
2024/01/02 01:24:32;;;;;;;12.30;4.13;;;6.30;99.90;;;;;;7375003;19;20254;-68
2024/01/02 01:26:59;;;;;;;13.65;4.25;;;6.30;99.90;;;;;;7371894;19;20019;-68
2024/01/02 01:29:25;;;;;;;15.10;3.75;;;6.30;99.90;;;;;;7372499;19;20029;-68
2024/01/02 01:32:12;;;;;;;16.38;4.07;;;6.40;99.90;;;;;;7373004;19;20127;-62
2024/01/02 01:34:39;;;;;;;23.85;4.40;;;6.30;99.90;;;;;;7373488;19;20014;-63
2024/01/02 01:37:05;;;;;;;20.05;4.38;;;6.40;99.90;;;;;;7367630;19;20021;-62
2024/01/02 01:39:31;;;;;;;19.63;4.90;;;6.30;99.90;;;;;;7374181;19;20732;-63
2024/01/02 01:41:57;;;;;;;13.15;4.55;;;6.40;99.90;;;;;;7374205;19;20013;-62
2024/01/02 01:44:25;;;;;;;21.52;5.22;;;6.30;99.90;;;;;;7370458;19;20138;-62
2024/01/02 01:46:54;;;;;;;14.48;4.43;;;6.40;99.90;;;;;;7373171;19;20026;-62
2024/01/02 01:49:21;;;;;;;12.27;4.03;;;6.40;99.90;;;;;;7367390;19;20057;-63
2024/01/02 01:52:09;;;;;;;16.98;5.00;;;6.40;99.90;;;;;;7366771;19;20018;-62
2024/01/02 01:54:35;;;;;;;23.48;5.57;;;6.40;99.90;;;;;;7373832;19;20014;-68
2024/01/02 01:57:04;;;;;;;16.08;5.97;;;6.40;99.90;;;;;;7367337;19;20010;-62
2024/01/02 01:59:31;;;;;;;19.40;6.60;;;6.40;99.90;;;;;;7367422;19;20397;-68
2024/01/02 02:01:59;;;;;;;16.80;5.95;;;6.50;99.90;;;;;;7370045;19;20098;-62
2024/01/02 02:04:27;;;;;;;22.38;6.43;;;6.40;99.90;;;;;;7371808;19;20025;-62
2024/01/02 02:06:54;;;;;;;18.40;6.80;;;6.40;99.90;;;;;;7373501;19;20018;-62
2024/01/02 02:09:40;;;;;;;19.95;7.25;;;6.50;99.90;;;;;;7366591;19;20682;-62
2024/01/02 02:12:10;;;;;;;20.75;6.95;;;6.50;99.90;;;;;;7366140;19;20863;-62
2024/01/02 02:14:36;;;;;;;27.23;8.05;;;6.50;99.90;;;;;;7367417;19;20048;-62
2024/01/02 02:17:06;;;;;;;18.63;8.05;;;6.50;99.90;;;;;;7368324;19;20844;-69
2024/01/02 02:19:33;;;;;;;16.65;7.47;;;6.40;99.90;;;;;;7367709;19;20645;-69
2024/01/02 02:22:27;;;;;;;21.50;8.00;;;6.50;99.90;;;;;;7365537;19;20010;-69
2024/01/02 02:24:53;;;;;;;19.23;8.40;;;6.40;99.90;;;;;;7368110;19;20017;-69
2024/01/02 02:27:19;;;;;;;24.05;7.47;;;6.40;99.90;;;;;;7369896;19;20014;-69
2024/01/02 02:30:06;;;;;;;19.50;8.43;;;6.40;99.90;;;;;;7366580;19;20018;-69
2024/01/02 02:32:33;;;;;;;22.58;8.02;;;6.50;99.90;;;;;;7371753;19;20022;-69
2024/01/02 02:34:59;;;;;;;13.77;4.90;;;6.50;99.90;;;;;;7366495;19;20021;-68
2024/01/02 02:37:26;;;;;;;17.67;8.65;;;6.50;99.90;;;;;;7370757;19;20082;-69
2024/01/02 02:39:52;;;;;;;12.73;6.40;;;6.40;99.90;;;;;;7368739;19;20015;-62
2024/01/02 02:42:19;;;;;;;17.80;8.63;;;6.50;99.90;;;;;;7369798;19;20027;-68
2024/01/02 02:44:45;;;;;;;19.17;8.18;;;6.50;99.90;;;;;;7368171;19;20022;-69
2024/01/02 02:47:12;;;;;;;19.27;7.13;;;6.50;99.90;;;;;;7368850;19;20019;-68
2024/01/02 02:49:38;;;;;;;19.40;8.10;;;6.50;99.90;;;;;;7367282;19;20015;-68
2024/01/02 02:52:05;;;;;;;19.60;7.40;;;6.50;99.90;;;;;;7369055;19;20334;-68
2024/01/02 02:54:32;;;;;;;23.90;7.40;;;6.50;99.90;;;;;;7366676;19;20470;-68
2024/01/02 02:56:59;;;;;;;17.13;7.55;;;6.50;99.90;;;;;;7365783;19;20094;-68
2024/01/02 02:59:27;;;;;;;17.48;7.15;;;6.50;99.90;;;;;;7369684;19;20022;-69
2024/01/02 03:01:53;;;;;;;16.75;6.70;;;6.50;99.90;;;;;;7366676;19;20022;-68
2024/01/02 03:04:19;;;;;;;12.43;6.30;;;6.50;99.90;;;;;;7366921;19;20026;-68
2024/01/02 03:06:45;;;;;;;14.13;6.38;;;6.60;99.90;;;;;;7367002;19;20042;-68
2024/01/02 03:09:12;;;;;;;17.50;7.10;;;6.60;99.90;;;;;;7367671;19;20035;-67
2024/01/02 03:11:38;;;;;;;17.58;7.20;;;6.60;99.90;;;;;;7370315;19;20034;-68
2024/01/02 03:14:04;;;;;;;15.13;6.57;;;6.60;99.90;;;;;;7369947;19;20022;-68
2024/01/02 03:16:31;;;;;;;19.08;7.82;;;6.60;99.90;;;;;;7372251;19;20030;-68
2024/01/02 03:18:57;;;;;;;17.85;7.72;;;6.60;99.90;;;;;;7368506;19;20648;-69
2024/01/02 03:21:28;;;;;;;11.45;4.70;;;6.60;99.90;;;;;;7371463;19;20482;-68
2024/01/02 03:23:55;;;;;;;10.73;6.18;;;6.60;99.90;;;;;;7370174;19;20732;-68
2024/01/02 03:26:22;;;;;;;14.13;6.68;;;6.60;99.90;;;;;;7369460;19;20022;-68
2024/01/02 03:28:48;;;;;;;15.32;7.32;;;6.60;99.90;;;;;;7370760;19;20080;-68
2024/01/02 03:31:14;;;;;;;14.52;6.88;;;6.60;99.90;;;;;;7367492;19;20638;-69
2024/01/02 03:33:40;;;;;;;18.52;8.88;;;6.60;99.90;;;;;;7369225;19;20109;-68
2024/01/02 03:36:17;;;;;;;14.80;7.18;;;6.60;99.90;;;;;;7365006;19;20018;-69
2024/01/02 03:39:05;;;;;;;15.25;7.18;;;6.60;99.90;;;;;;7366089;19;20023;-68
2024/01/02 03:41:31;;;;;;;15.20;7.15;;;6.50;99.90;;;;;;7363408;19;20015;-68
2024/01/02 03:43:58;;;;;;;15.02;7.47;;;6.50;99.90;;;;;;7369574;19;20026;-69
2024/01/02 03:46:24;;;;;;;11.85;6.28;;;6.60;99.90;;;;;;7366665;19;20888;-69
2024/01/02 03:48:50;;;;;;;12.55;5.85;;;6.50;99.90;;;;;;7367712;19;20019;-69
2024/01/02 03:51:16;;;;;;;14.90;6.40;;;6.50;99.90;;;;;;7365094;19;20022;-69
2024/01/02 03:53:42;;;;;;;10.48;5.43;;;6.50;99.90;;;;;;7363728;19;20082;-68
2024/01/02 03:56:10;;;;;;;17.60;6.95;;;6.60;99.90;;;;;;7368084;19;20355;-68
2024/01/02 03:58:36;;;;;;;15.20;7.13;;;6.60;99.90;;;;;;7366650;19;20056;-69
2024/01/02 04:01:03;;;;;;;13.63;6.93;;;6.50;99.90;;;;;;7368468;19;20033;-69
2024/01/02 04:03:30;;;;;;;12.77;7.13;;;6.60;99.90;;;;;;7375408;19;20011;-68
2024/01/02 04:06:17;;;;;;;10.43;6.43;;;6.60;99.90;;;;;;7373605;19;20010;-68
2024/01/02 04:08:43;;;;;;;13.82;7.25;;;6.50;99.90;;;;;;7375494;19;20015;-68
2024/01/02 04:11:29;;;;;;;11.27;5.20;;;6.50;99.90;;;;;;7374099;19;20018;-69
2024/01/02 04:13:55;;;;;;;18.23;6.68;;;6.50;99.90;;;;;;7373738;19;20015;-69
2024/01/02 04:16:21;;;;;;;11.77;5.53;;;6.60;99.90;;;;;;7373718;19;20366;-69
2024/01/02 04:18:50;;;;;;;12.23;5.10;;;6.50;99.90;;;;;;7371167;19;20033;-69
2024/01/02 04:21:16;;;;;;;14.65;5.68;;;6.60;99.90;;;;;;7373134;19;20022;-69
2024/01/02 04:23:43;;;;;;;11.00;4.82;;;6.50;99.90;;;;;;7374237;19;20022;-69
2024/01/02 04:26:09;;;;;;;10.10;4.70;;;6.60;99.90;;;;;;7374508;19;20018;-69
2024/01/02 04:28:36;;;;;;;7.38;4.13;;;6.60;99.90;;;;;;7374866;19;20018;-62
2024/01/02 04:31:02;;;;;;;8.25;4.57;;;6.60;99.90;;;;;;7374528;19;20038;-62
2024/01/02 04:33:28;;;;;;;10.65;4.97;;;6.60;99.90;;;;;;7374991;19;20097;-62
2024/01/02 04:35:55;;;;;;;10.30;4.18;;;6.60;99.90;;;;;;7373476;19;20585;-69
2024/01/02 04:38:21;;;;;;;8.82;4.13;;;6.60;99.90;;;;;;7374562;19;20394;-69
2024/01/02 04:40:47;;;;;;;7.20;3.97;;;6.50;99.90;;;;;;7374449;19;20022;-68
2024/01/02 04:43:14;;;;;;;8.00;2.85;;;6.50;99.90;;;;;;7374415;19;20010;-69
2024/01/02 04:45:40;;;;;;;8.15;3.38;;;6.50;99.90;;;;;;7378488;19;20033;-69
2024/01/02 04:48:06;;;;;;;7.53;3.30;;;6.50;99.90;;;;;;7374180;19;20018;-69
2024/01/02 04:50:33;;;;;;;6.53;3.17;;;6.60;99.90;;;;;;7375012;19;20030;-69
2024/01/02 04:53:00;;;;;;;11.85;3.22;;;6.60;99.90;;;;;;7377709;19;20025;-69
2024/01/02 04:55:26;;;;;;;9.07;3.28;;;6.60;99.90;;;;;;7374161;19;20029;-69
2024/01/02 04:57:52;;;;;;;8.07;3.10;;;6.60;99.90;;;;;;7373225;19;20053;-69
2024/01/02 05:00:18;;;;;;;8.10;3.45;;;6.60;99.90;;;;;;7370000;19;20018;-69
2024/01/02 05:02:45;;;;;;;6.15;2.83;;;6.60;99.90;;;;;;7373360;19;20026;-69
2024/01/02 05:05:11;;;;;;;5.85;2.78;;;6.50;99.90;;;;;;7374956;19;20023;-69
2024/01/02 05:07:37;;;;;;;9.40;3.08;;;6.60;99.90;;;;;;7372942;19;20021;-69
2024/01/02 05:10:04;;;;;;;5.47;2.72;;;6.60;99.90;;;;;;7372773;19;20018;-64
2024/01/02 05:12:34;;;;;;;6.30;2.72;;;6.60;99.90;;;;;;7373720;19;20126;-63
2024/01/02 05:15:00;;;;;;;5.18;2.78;;;6.60;99.90;;;;;;7374090;19;20015;-69
2024/01/02 05:17:26;;;;;;;5.75;2.78;;;6.60;99.90;;;;;;7373849;19;20052;-69
2024/01/02 05:19:52;;;;;;;5.20;3.35;;;6.60;99.90;;;;;;7371800;19;20018;-63
2024/01/02 05:22:19;;;;;;;6.32;3.20;;;6.60;99.90;;;;;;7373238;19;20026;-62
2024/01/02 05:24:46;;;;;;;6.93;3.15;;;6.60;99.90;;;;;;7371871;19;20074;-63
2024/01/02 05:27:12;;;;;;;6.90;3.75;;;6.60;99.90;;;;;;7371586;19;20090;-63
2024/01/02 05:29:39;;;;;;;6.85;3.58;;;6.70;99.90;;;;;;7375226;19;20019;-63
2024/01/02 05:32:05;;;;;;;7.60;3.63;;;6.60;99.90;;;;;;7367312;19;20362;-62
2024/01/02 05:34:31;;;;;;;7.00;3.75;;;6.60;99.90;;;;;;7365144;19;20026;-63
2024/01/02 05:36:59;;;;;;;5.82;3.75;;;6.60;99.90;;;;;;7366084;19;20018;-62
2024/01/02 05:39:25;;;;;;;4.63;3.05;;;6.60;99.90;;;;;;7365924;19;20093;-63
2024/01/02 05:41:51;;;;;;;5.22;2.90;;;6.70;99.90;;;;;;7365312;19;20025;-63
2024/01/02 05:44:17;;;;;;;8.48;3.70;;;6.70;99.90;;;;;;7364216;19;20022;-67
2024/01/02 05:46:44;;;;;;;3.88;2.70;;;6.70;99.90;;;;;;7367362;19;20010;-69
2024/01/02 05:49:10;;;;;;;5.03;3.05;;;6.70;99.90;;;;;;7363182;19;20035;-69
2024/01/02 05:51:36;;;;;;;5.13;2.90;;;6.60;99.90;;;;;;7367199;19;20078;-69
2024/01/02 05:54:02;;;;;;;5.10;3.45;;;6.70;99.90;;;;;;7368719;19;20021;-63
2024/01/02 05:56:29;;;;;;;5.00;3.47;;;6.70;99.90;;;;;;7367562;19;20014;-64
2024/01/02 05:58:55;;;;;;;5.43;3.00;;;6.70;99.90;;;;;;7372440;19;20018;-64
2024/01/02 06:01:22;;;;;;;5.03;3.50;;;6.60;99.90;;;;;;7369147;19;20095;-68
2024/01/02 06:04:08;;;;;;;5.07;3.63;;;6.60;99.90;;;;;;7366169;19;20387;-64
2024/01/02 06:06:35;;;;;;;4.88;3.40;;;6.70;99.90;;;;;;7369976;19;20053;-64
2024/01/02 06:09:02;;;;;;;7.72;3.47;;;6.70;99.90;;;;;;7366460;19;20050;-70
2024/01/02 06:11:28;;;;;;;4.85;2.92;;;6.70;99.90;;;;;;7368896;19;20043;-63
2024/01/02 06:13:54;;;;;;;3.97;2.88;;;6.70;99.90;;;;;;7368930;19;20029;-64
2024/01/02 06:16:20;;;;;;;5.35;3.60;;;6.70;99.90;;;;;;7369051;19;20030;-64
2024/01/02 06:18:47;;;;;;;5.95;3.40;;;6.80;99.90;;;;;;7369091;19;20491;-63
2024/01/02 06:21:15;;;;;;;4.85;3.20;;;6.70;99.90;;;;;;7368508;19;20037;-64
2024/01/02 06:23:42;;;;;;;6.85;3.53;;;6.70;99.90;;;;;;7367527;19;20015;-64
2024/01/02 06:26:09;;;;;;;5.22;3.88;;;6.70;99.90;;;;;;7362142;19;20105;-64
2024/01/02 06:28:35;;;;;;;7.57;3.78;;;6.80;99.90;;;;;;7365904;19;20038;-63
2024/01/02 06:31:07;;;;;;;5.32;3.55;;;6.80;99.90;;;;;;7366266;19;20022;-69
2024/01/02 06:33:33;;;;;;;;;;;6.80;99.90;;;;;;7369423;19;20507;-69
2024/01/02 06:36:00;;;;;;;5.05;2.83;;;6.80;99.90;;;;;;7367678;19;19923;-64
2024/01/02 06:38:26;;;;;;;4.47;2.63;;;6.80;99.90;;;;;;7370720;19;20018;-68
2024/01/02 06:41:12;;;;;;;5.72;3.65;;;6.90;99.90;;;;;;7368801;19;20015;-69
2024/01/02 06:43:38;;;;;;;5.40;3.50;;;6.90;99.90;;;;;;7373136;19;20576;-64
2024/01/02 06:46:05;;;;;;;5.38;4.10;;;7.00;99.90;;;;;;7371123;19;20025;-64
2024/01/02 06:48:31;;;;;;;5.40;3.90;;;7.00;99.90;;;;;;7371888;19;20728;-68
2024/01/02 06:50:57;;;;;;;3.95;3.20;;;7.00;99.90;;;;;;7370738;19;20034;-68
2024/01/02 06:53:23;;;;;;;4.15;3.13;;;7.10;99.90;;;;;;7371386;19;20014;-65
2024/01/02 06:55:50;;;;;;;5.57;2.90;;;7.20;99.90;;;;;;7371122;19;20014;-63
2024/01/02 06:58:16;;;;;;;5.40;3.53;;;7.30;99.90;;;;;;7370471;19;20014;-64
2024/01/02 07:00:42;;;;;;;5.90;3.33;;;7.30;99.90;;;;;;7368567;19;20018;-64
2024/01/02 07:03:09;;;;;;;5.40;3.83;;;7.30;99.90;;;;;;7370476;19;20014;-69
2024/01/02 07:05:36;;;;;;;6.78;4.40;;;7.30;99.90;;;;;;7370387;19;20506;-69
2024/01/02 07:08:03;;;;;;;6.40;4.28;;;7.30;99.90;;;;;;7372316;19;20031;-69
2024/01/02 07:10:29;;;;;;;5.68;4.32;;;7.30;99.90;;;;;;7367385;19;20592;-69
2024/01/02 07:12:58;;;;;;;6.45;4.55;;;7.30;99.90;;;;;;7373785;19;20148;-69
2024/01/02 07:15:44;;;;;;;8.23;5.13;;;7.30;99.90;;;;;;7371361;19;20027;-69
2024/01/02 07:18:11;;;;;;;7.55;5.15;;;7.40;99.90;;;;;;7370791;19;20018;-65
2024/01/02 07:20:38;;;;;;;8.23;5.70;;;7.40;99.90;;;;;;7371454;19;20732;-65
2024/01/02 07:23:04;;;;;;;6.85;5.43;;;7.40;99.90;;;;;;7371272;19;20015;-68
2024/01/02 07:25:31;;;;;;;7.65;5.68;;;7.40;99.90;;;;;;7371257;19;20018;-69
2024/01/02 07:27:58;;;;;;;9.55;6.55;;;7.50;99.90;;;;;;7369659;19;20047;-68
2024/01/02 07:30:26;;;;;;;9.32;6.20;;;7.50;99.90;;;;;;7371474;19;20354;-62
2024/01/02 07:32:52;;;;;;;9.45;6.78;;;7.50;99.90;;;;;;7370147;19;20022;-64
2024/01/02 07:35:18;;;;;;;9.27;6.28;;;7.60;99.90;;;;;;7372495;19;20429;-64
2024/01/02 07:37:46;;;;;;;9.00;6.28;;;7.60;99.90;;;;;;7376856;19;20586;-64
2024/01/02 07:40:12;;;;;;;8.38;5.47;;;7.60;99.90;;;;;;7376454;19;20049;-65
2024/01/02 07:42:38;;;;;;;8.02;5.45;;;7.70;99.90;;;;;;7378753;19;20014;-65
2024/01/02 07:45:05;;;;;;;8.52;5.50;;;7.80;99.90;;;;;;7381270;19;20014;-69
2024/01/02 07:47:31;;;;;;;8.93;5.70;;;7.90;99.90;;;;;;7374345;19;20812;-69
2024/01/02 07:49:58;;;;;;;8.82;5.28;;;7.90;99.90;;;;;;7378705;19;20018;-64
2024/01/02 07:52:24;;;;;;;9.98;5.72;;;7.90;99.90;;;;;;7374314;19;20015;-65
2024/01/02 07:54:50;;;;;;;9.82;5.97;;;8.00;99.90;;;;;;7383489;19;20537;-68
2024/01/02 07:57:16;;;;;;;10.35;5.78;;;8.00;99.90;;;;;;7374547;19;20015;-69
2024/01/02 07:59:43;;;;;;;12.20;6.55;;;8.20;99.90;;;;;;7377884;19;20033;-65
2024/01/02 08:02:09;;;;;;;14.02;6.72;;;8.30;99.90;;;;;;7377011;19;20022;-64
2024/01/02 08:04:35;;;;;;;12.45;6.70;;;8.40;99.90;;;;;;7379635;19;20035;-64
2024/01/02 08:07:01;;;;;;;15.82;6.85;;;8.40;99.90;;;;;;7378508;19;20382;-69
2024/01/02 08:09:28;;;;;;;17.73;6.97;;;8.60;99.90;;;;;;7378869;19;20018;-64
2024/01/02 08:11:54;;;;;;;17.73;8.38;;;8.50;99.90;;;;;;7376248;19;20504;-70
2024/01/02 08:14:20;;;;;;;18.02;8.70;;;8.70;99.90;;;;;;7375332;19;20054;-65
2024/01/02 08:16:46;;;;;;;21.20;9.27;;;8.80;99.90;;;;;;7377297;19;20011;-65
2024/01/02 08:19:33;;;;;;;24.40;9.70;;;9.00;99.90;;;;;;7377354;19;20023;-64
2024/01/02 08:21:59;;;;;;;21.08;10.18;;;9.00;99.90;;;;;;7376813;19;20022;-69
2024/01/02 08:24:25;;;;;;;25.15;9.68;;;9.10;99.90;;;;;;7372981;19;20771;-69
2024/01/02 08:26:51;;;;;;;26.27;10.80;;;9.20;99.90;;;;;;7376871;19;20085;-70
2024/01/02 08:29:38;;;;;;;25.48;10.50;;;9.30;99.90;;;;;;7375287;19;20022;-69
2024/01/02 08:32:25;;;;;;;25.23;10.32;;;9.30;99.90;;;;;;7373440;19;20464;-70
2024/01/02 08:34:51;;;;;;;25.75;9.23;;;9.40;99.90;;;;;;7379752;19;20018;-65
2024/01/02 08:37:18;;;;;;;23.27;10.35;;;9.40;99.90;;;;;;7371215;19;20022;-65
2024/01/02 08:39:44;;;;;;;27.80;9.70;;;9.50;99.90;;;;;;7378296;19;20014;-65
2024/01/02 08:42:11;;;;;;;23.70;11.15;;;9.60;99.90;;;;;;7373924;19;20057;-68
2024/01/02 08:44:37;;;;;;;26.02;10.45;;;9.60;99.90;;;;;;7377916;19;20025;-69
2024/01/02 08:47:04;;;;;;;27.60;9.43;;;9.70;99.90;;;;;;7373573;19;20018;-68
2024/01/02 08:49:30;;;;;;;37.00;18.52;;;9.60;99.90;;;;;;7374933;19;20085;-69
2024/01/02 08:51:56;;;;;;;25.70;8.82;;;9.70;99.90;;;;;;7374264;19;20018;-67
2024/01/02 08:54:23;;;;;;;30.13;8.73;;;9.80;99.90;;;;;;7375197;19;20011;-69
2024/01/02 08:56:49;;;;;;;17.33;6.72;;;9.80;99.90;;;;;;7375689;19;20018;-69
2024/01/02 08:59:15;;;;;;;24.88;7.13;;;9.90;99.90;;;;;;7376748;19;20022;-70
2024/01/02 09:01:41;;;;;;;26.00;7.05;;;10.00;99.90;;;;;;7375622;19;20348;-69
2024/01/02 09:04:08;;;;;;;26.48;6.10;;;10.00;99.90;;;;;;7375118;19;20011;-65
2024/01/02 09:06:34;;;;;;;26.60;5.32;;;10.00;99.90;;;;;;7375451;19;20014;-66
2024/01/02 09:09:00;;;;;;;25.02;5.40;;;10.10;99.90;;;;;;7374736;19;20487;-64
2024/01/02 09:11:26;;;;;;;31.25;5.07;;;10.10;99.90;;;;;;7374661;19;20121;-65
2024/01/02 09:13:52;;;;;;;21.58;4.60;;;10.10;99.90;;;;;;7373940;19;20102;-65
2024/01/02 09:16:19;;;;;;;22.45;4.50;;;10.10;99.90;;;;;;7372670;19;20032;-69
2024/01/02 09:18:45;;;;;;;23.42;4.35;;;10.10;99.90;;;;;;7375124;19;20126;-66
2024/01/02 09:21:12;;;;;;;23.27;4.38;;;10.10;99.90;;;;;;7375758;19;20486;-70
2024/01/02 09:23:39;;;;;;;24.50;4.78;;;10.20;99.90;;;;;;7374327;19;20029;-70
2024/01/02 09:26:07;;;;;;;20.70;4.07;;;10.20;99.90;;;;;;7376191;19;20018;-70
2024/01/02 09:28:34;;;;;;;23.67;3.78;;;10.20;99.90;;;;;;7373749;19;20031;-71
2024/01/02 09:31:02;;;;;;;20.25;4.40;;;10.20;99.90;;;;;;7372570;19;20019;-66
2024/01/02 09:33:28;;;;;;;27.33;4.40;;;10.30;99.90;;;;;;7374562;19;20425;-65
2024/01/02 09:35:54;;;;;;;27.20;4.47;;;10.30;99.90;;;;;;7374658;19;20887;-66
2024/01/02 09:38:21;;;;;;;20.60;3.97;;;10.30;99.90;;;;;;7372544;19;20030;-66
2024/01/02 09:40:59;;;;;;;28.55;4.10;;;10.30;99.90;;;;;;7375168;19;20010;-67
2024/01/02 09:43:54;;;;;;;28.98;4.50;;;10.30;99.90;;;;;;7372356;19;20018;-65
2024/01/02 09:46:41;;;;;;;19.50;3.75;;;10.40;99.90;;;;;;7371923;19;20026;-65
2024/01/02 09:49:13;;;;;;;20.60;4.30;;;10.40;99.90;;;;;;7376370;19;20390;-65
2024/01/02 09:52:05;;;;;;;23.45;3.90;;;10.40;99.90;;;;;;7373282;19;20014;-65
2024/01/02 09:54:45;;;;;;;18.80;3.78;;;10.40;99.90;;;;;;7373306;19;20657;-65
2024/01/02 09:57:24;;;;;;;22.85;4.15;;;10.40;99.90;;;;;;7373544;19;20054;-65
2024/01/02 10:00:28;;;;;;;21.70;3.28;;;10.40;99.90;;;;;;7370836;19;20021;-65
2024/01/02 10:03:10;;;;;;;19.15;3.70;;;10.50;99.90;;;;;;7372630;19;20388;-65
2024/01/02 10:05:49;;;;;;;23.30;6.18;;;10.40;99.90;;;;;;7373225;19;20771;-65
2024/01/02 10:08:22;;;;;;;23.60;5.18;;;10.40;99.90;;;;;;7373858;19;21008;-65
2024/01/02 10:10:55;;;;;;;16.80;3.50;;;10.50;99.90;;;;;;7377293;19;20026;-65
2024/01/02 10:13:31;;;;;;;23.70;4.60;;;10.50;99.90;;;;;;7369924;19;20715;-65
2024/01/02 10:16:04;;;;;;;20.25;3.42;;;10.50;99.90;;;;;;7376224;19;20021;-68
2024/01/02 10:18:56;;;;;;;19.25;3.55;;;10.50;99.90;;;;;;7372465;19;20015;-68
2024/01/02 10:21:31;;;;;;;15.55;4.43;;;10.50;99.90;;;;;;7373533;19;20462;-68
2024/01/02 10:24:07;;;;;;;16.50;3.25;;;10.60;99.90;;;;;;7371539;19;20078;-65
2024/01/02 10:26:38;;;;;;;17.73;3.85;;;10.60;99.90;;;;;;7372189;19;20018;-64
2024/01/02 10:29:07;;;;;;;24.67;3.75;;;10.60;99.90;;;;;;7374116;19;20030;-65
2024/01/02 10:31:44;;;;;;;13.82;3.42;;;10.70;99.90;;;;;;7371068;19;20033;-68
2024/01/02 10:34:34;;;;;;;20.83;4.43;;;10.70;99.90;;;;;;7373041;19;20432;-68
2024/01/02 10:37:06;;;;;;;18.85;3.60;;;10.70;99.90;;;;;;7372540;19;20093;-67
2024/01/02 10:39:32;;;;;;;22.50;4.25;;;10.70;99.90;;;;;;7374112;19;20025;-68
2024/01/02 10:42:08;;;;;;;19.08;3.53;;;10.70;99.90;;;;;;7374976;19;20691;-68
2024/01/02 10:45:04;;;;;;;16.48;3.35;;;10.70;99.90;;;;;;7374159;19;20011;-65
2024/01/02 10:47:36;;;;;;;18.42;3.70;;;10.70;99.90;;;;;;7369473;19;20074;-64
2024/01/02 10:50:04;;;;;;;20.73;3.67;;;10.70;99.90;;;;;;7374821;19;20018;-68
2024/01/02 10:52:46;;;;;;;16.42;3.55;;;10.70;99.90;;;;;;7375484;19;20388;-65
2024/01/02 10:55:51;;;;;;;23.73;4.45;;;10.70;99.90;;;;;;7373095;19;20021;-65
2024/01/02 10:58:23;;;;;;;14.43;4.00;;;10.70;99.90;;;;;;7372488;19;20018;-65
2024/01/02 11:01:18;;;;;;;22.80;4.43;;;10.70;99.90;;;;;;7372236;19;20018;-65
2024/01/02 11:03:55;;;;;;;20.75;4.15;;;10.70;99.90;;;;;;7370587;19;20018;-65
2024/01/02 11:06:38;;;;;;;20.98;3.45;;;10.70;99.90;;;;;;7373854;19;20019;-64
2024/01/02 11:09:16;;;;;;;16.20;4.30;;;10.70;99.90;;;;;;7370396;19;20119;-65
2024/01/02 11:11:43;;;;;;;23.75;4.95;;;10.80;99.90;;;;;;7374798;19;20019;-65
2024/01/02 11:14:14;;;;;;;21.60;3.75;;;10.80;99.90;;;;;;7371358;19;20014;-64
2024/01/02 11:16:44;;;;;;;22.60;3.83;;;10.80;99.90;;;;;;7372030;19;20113;-67
2024/01/02 11:19:13;;;;;;;23.08;5.38;;;10.80;99.90;;;;;;7381265;19;20018;-68
2024/01/02 11:22:17;;;;;;;24.55;4.35;;;10.80;99.90;;;;;;7375023;19;20677;-64
2024/01/02 11:25:08;;;;;;;21.73;4.75;;;10.80;99.90;;;;;;7371084;19;20022;-64
2024/01/02 11:27:38;;;;;;;30.65;5.07;;;10.80;99.90;;;;;;7377814;19;20014;-68
2024/01/02 11:30:10;;;;;;;31.67;5.82;;;10.80;99.90;;;;;;7381113;19;20034;-68
2024/01/02 11:32:41;;;;;;;31.08;5.57;;;10.80;99.90;;;;;;7379795;19;20019;-68
2024/01/02 11:35:08;;;;;;;30.38;6.07;;;10.90;99.90;;;;;;7372825;19;20486;-65
2024/01/02 11:38:07;;;;;;;29.92;5.75;;;10.80;99.90;;;;;;7365417;19;20060;-64
2024/01/02 11:40:52;;;;;;;24.83;5.25;;;10.80;99.90;;;;;;7367696;19;20470;-67
2024/01/02 11:43:32;;;;;;;32.17;6.32;;;10.80;99.90;;;;;;7369935;19;20019;-67
2024/01/02 11:45:59;;;;;;;29.30;6.47;;;10.80;99.90;;;;;;7356505;19;20014;-68
2024/01/02 11:48:37;;;;;;;30.77;6.75;;;10.80;99.90;;;;;;7368418;19;20054;-66
2024/01/02 11:51:11;;;;;;;27.38;5.38;;;10.80;99.90;;;;;;7368303;19;20042;-68
2024/01/02 11:53:55;;;;;;;28.08;6.10;;;10.80;99.90;;;;;;7368853;19;20018;-64
2024/01/02 11:56:23;;;;;;;29.10;6.40;;;10.80;99.90;;;;;;7367782;19;20019;-68
2024/01/02 11:59:33;;;;;;;25.42;5.43;;;10.80;99.90;;;;;;7370428;19;20015;-67
2024/01/02 12:02:06;;;;;;;29.35;6.03;;;10.80;99.90;;;;;;7370807;19;20023;-64
2024/01/02 12:05:15;;;;;;;32.20;6.05;;;10.80;99.90;;;;;;7369547;19;20014;-64
2024/01/02 12:07:48;;;;;;;26.33;6.40;;;10.80;99.90;;;;;;7370917;19;20516;-68
2024/01/02 12:10:15;;;;;;;35.20;7.63;;;10.80;99.90;;;;;;7367086;19;20022;-69
2024/01/02 12:12:54;;;;;;;28.55;6.82;;;10.80;99.90;;;;;;7371420;19;20018;-68
2024/01/02 12:15:39;;;;;;;31.33;6.65;;;10.80;99.90;;;;;;7366048;19;20082;-64
2024/01/02 12:18:06;;;;;;;34.70;7.07;;;10.80;99.90;;;;;;7371784;19;20098;-64
2024/01/02 12:20:58;;;;;;;29.02;7.70;;;10.70;99.90;;;;;;7368387;19;20015;-64
2024/01/02 12:23:49;;;;;;;31.15;7.50;;;10.80;99.90;;;;;;7375798;19;20630;-64
2024/01/02 12:26:21;;;;;;;31.77;8.77;;;10.80;99.90;;;;;;7377342;19;20032;-64
2024/01/02 12:28:48;;;;;;;29.70;7.22;;;10.80;99.90;;;;;;7378150;19;20034;-65
2024/01/02 12:31:29;;;;;;;30.38;7.90;;;10.70;99.90;;;;;;7371211;19;20014;-65
2024/01/02 12:34:21;;;;;;;30.48;7.78;;;10.70;99.90;;;;;;7375925;19;20117;-65
2024/01/02 12:37:02;;;;;;;38.63;9.05;;;10.70;99.90;;;;;;7373492;19;20027;-65
2024/01/02 12:39:36;;;;;;;35.50;8.30;;;10.70;99.90;;;;;;7376029;19;20022;-69
2024/01/02 12:42:05;;;;;;;26.48;7.20;;;10.70;99.90;;;;;;7377499;19;20015;-65
2024/01/02 12:44:35;;;;;;;42.80;8.73;;;10.70;99.90;;;;;;7373368;19;20109;-69
2024/01/02 12:47:05;;;;;;;41.25;8.63;;;10.60;99.90;;;;;;7379636;19;20027;-69
2024/01/02 12:49:43;;;;;;;30.38;7.55;;;10.70;99.90;;;;;;7377740;19;20081;-69
2024/01/02 12:52:18;;;;;;;32.53;7.85;;;10.60;99.90;;;;;;7377385;19;20014;-69
2024/01/02 12:54:51;;;;;;;29.85;7.88;;;10.60;99.90;;;;;;7374103;19;20010;-69
2024/01/02 12:57:17;;;;;;;30.30;8.88;;;10.60;99.90;;;;;;7373959;19;20014;-70
2024/01/02 12:59:45;;;;;;;35.75;8.02;;;10.60;99.90;;;;;;7374360;19;20017;-69
2024/01/02 13:02:11;;;;;;;38.67;10.18;;;10.60;99.90;;;;;;7375738;19;20446;-65